createdAt,value
2018-04-08T00:03:04.897Z,9.30
2018-04-08T06:04:28.776Z,12.10
2018-04-08T06:06:56.225Z,12.10
2018-04-08T06:09:23.682Z,12.70
2018-04-08T06:11:50.667Z,13.00
2018-04-08T06:14:18.116Z,13.80
2018-04-08T06:16:45.104Z,14.70
2018-04-08T06:19:12.114Z,14.40
2018-04-08T06:21:39.557Z,14.60
2018-04-08T06:24:07.012Z,14.80
2018-04-08T06:26:34.452Z,14.60
2018-04-08T06:29:01.912Z,14.50
2018-04-08T06:31:29.362Z,14.80
2018-04-08T06:33:56.816Z,14.80
2018-04-08T06:36:24.269Z,15.00
2018-04-08T06:38:51.729Z,15.40
2018-04-08T06:41:19.164Z,15.20
2018-04-08T06:43:46.595Z,15.00
2018-04-08T06:46:14.796Z,14.20
2018-04-08T06:48:42.264Z,14.20
2018-04-08T06:51:09.701Z,14.30
2018-04-08T06:53:37.139Z,14.20
2018-04-08T06:56:05.360Z,14.10
2018-04-08T06:58:42.863Z,14.00
2018-04-08T07:01:10.313Z,14.60
2018-04-08T07:03:37.761Z,14.30
2018-04-08T07:06:05.203Z,14.40
2018-04-08T07:08:32.641Z,14.30
2018-04-08T07:11:00.079Z,14.40
2018-04-08T07:13:28.298Z,14.80
2018-04-08T07:15:55.752Z,14.70
2018-04-08T07:18:23.249Z,14.70
2018-04-08T07:20:50.993Z,14.70
2018-04-08T07:23:18.504Z,15.30
2018-04-08T07:25:46.770Z,15.40
2018-04-08T07:28:15.396Z,15.50
2018-04-08T07:39:30.462Z,15.20
2018-04-08T07:41:58.856Z,15.20
2018-04-08T07:44:27.148Z,15.10
2018-04-08T07:46:54.684Z,15.20
2018-04-08T07:49:22.924Z,15.40
2018-04-08T07:51:50.425Z,15.40
2018-04-08T07:54:18.086Z,15.40
2018-04-08T07:56:46.291Z,15.60
2018-04-08T07:59:13.762Z,15.60
2018-04-08T08:01:42.228Z,15.60
2018-04-08T08:04:09.664Z,15.90
2018-04-08T08:06:37.120Z,16.20
2018-04-08T08:09:05.242Z,16.10
2018-04-08T08:11:32.817Z,16.40
2018-04-08T08:14:00.330Z,16.60
2018-04-08T08:16:27.870Z,16.60
2018-04-08T08:18:55.490Z,16.90
2018-04-08T08:21:23.025Z,17.40
2018-04-08T08:23:50.586Z,17.20
2018-04-08T08:26:18.092Z,17.70
2018-04-08T08:28:45.711Z,17.70
2018-04-08T08:31:13.243Z,18.40
2018-04-08T08:33:40.734Z,18.40
2018-04-08T08:36:08.520Z,19.00
2018-04-08T08:38:36.345Z,19.10
2018-04-08T08:41:03.951Z,18.80
2018-04-08T08:43:32.232Z,19.20
2018-04-08T08:45:59.726Z,19.20
2018-04-08T08:48:27.268Z,19.60
2018-04-08T08:50:54.781Z,19.90
2018-04-08T08:53:22.356Z,20.20
2018-04-08T08:55:50.647Z,20.50
2018-04-08T08:58:18.241Z,20.50
2018-04-08T09:00:45.777Z,20.40
2018-04-08T09:03:13.306Z,20.40
2018-04-08T09:05:41.625Z,21.10
2018-04-08T09:08:09.121Z,21.10
2018-04-08T09:10:36.601Z,22.00
2018-04-08T09:13:04.907Z,21.90
2018-04-08T09:15:32.440Z,21.80
2018-04-08T09:17:59.974Z,21.30
2018-04-08T09:20:30.885Z,21.30
2018-04-08T09:26:07.147Z,22.50
2018-04-08T09:28:34.603Z,22.60
2018-04-08T09:31:02.061Z,22.50
2018-04-08T09:33:29.535Z,22.60
2018-04-08T09:35:56.983Z,22.60
2018-04-08T09:38:24.446Z,22.30
2018-04-08T09:40:51.892Z,22.40
2018-04-08T09:43:19.357Z,24.10
2018-04-08T09:45:46.829Z,23.60
2018-04-08T09:48:14.284Z,23.60
2018-04-08T09:50:41.732Z,23.00
2018-04-08T09:53:09.182Z,23.10
2018-04-08T09:55:54.740Z,23.30
2018-04-08T09:58:22.205Z,23.40
2018-04-08T10:01:08.956Z,23.90
2018-04-08T10:03:41.361Z,24.40
2018-04-08T10:06:08.828Z,24.40
2018-04-08T10:08:36.290Z,23.20
2018-04-08T10:11:03.728Z,23.70
2018-04-08T10:13:31.189Z,26.00
2018-04-08T10:15:59.070Z,24.90
2018-04-08T10:18:26.532Z,24.90
2018-04-08T10:20:53.991Z,24.20
2018-04-08T10:23:21.489Z,24.20
2018-04-08T10:25:49.101Z,24.40
2018-04-08T10:28:16.554Z,25.10
2018-04-08T10:30:44.013Z,25.40
2018-04-08T10:33:11.481Z,24.80
2018-04-08T10:35:38.940Z,25.20
2018-04-08T10:38:06.401Z,24.80
2018-04-08T10:40:33.845Z,24.80
2018-04-08T10:43:01.304Z,24.70
2018-04-08T10:45:28.755Z,24.60
2018-04-08T10:47:56.201Z,26.40
2018-04-08T10:50:23.762Z,26.30
2018-04-08T10:52:51.202Z,25.60
2018-04-08T10:55:18.729Z,25.60
2018-04-08T10:57:46.500Z,25.40
2018-04-08T11:00:14.036Z,25.30
2018-04-08T11:02:41.541Z,25.20
2018-04-08T11:05:09.029Z,26.00
2018-04-08T11:07:36.533Z,26.80
2018-04-08T11:10:04.853Z,26.00
2018-04-08T11:12:32.393Z,25.90
2018-04-08T11:14:59.896Z,26.90
2018-04-08T11:17:27.425Z,26.70
2018-04-08T11:19:54.949Z,26.10
2018-04-08T11:22:23.207Z,25.80
2018-04-08T11:24:51.477Z,26.50
2018-04-08T11:27:19.754Z,26.90
2018-04-08T11:29:48.074Z,27.20
2018-04-08T11:32:15.602Z,27.20
2018-04-08T11:34:43.905Z,28.10
2018-04-08T11:37:11.436Z,27.20
2018-04-08T11:39:39.737Z,26.50
2018-04-08T11:42:07.281Z,26.40
2018-04-08T11:44:38.343Z,26.40
2018-04-08T11:47:05.857Z,26.90
2018-04-08T11:49:33.346Z,27.20
2018-04-08T11:52:00.903Z,27.20
2018-04-08T11:54:28.412Z,27.10
2018-04-08T11:56:55.878Z,27.20
2018-04-08T11:59:24.153Z,27.80
2018-04-08T12:01:51.722Z,27.80
2018-04-08T12:04:19.984Z,26.90
2018-04-08T12:06:47.460Z,26.90
2018-04-08T12:09:15.696Z,27.30
2018-04-08T12:11:43.139Z,27.20
2018-04-08T12:14:10.928Z,27.60
2018-04-08T12:16:38.450Z,28.00
2018-04-08T12:19:05.931Z,27.00
2018-04-08T12:21:33.450Z,27.20
2018-04-08T12:24:00.931Z,27.30
2018-04-08T12:26:31.781Z,27.50
2018-04-08T12:28:59.226Z,26.70
2018-04-08T12:31:26.674Z,27.80
2018-04-08T12:33:54.103Z,28.00
2018-04-08T12:36:21.547Z,28.10
2018-04-08T12:38:48.984Z,27.30
2018-04-08T12:41:17.364Z,26.40
2018-04-08T12:43:44.821Z,27.20
2018-04-08T12:46:12.256Z,27.20
2018-04-08T12:48:39.704Z,27.70
2018-04-08T12:51:07.188Z,27.90
2018-04-08T12:53:34.628Z,28.10
2018-04-08T12:56:02.072Z,27.80
2018-04-08T12:58:29.527Z,26.40
2018-04-08T13:00:56.979Z,27.00
2018-04-08T13:03:24.436Z,26.70
2018-04-08T13:05:51.882Z,26.50
2018-04-08T13:08:20.088Z,27.30
2018-04-08T13:10:47.540Z,27.30
2018-04-08T13:13:15.704Z,27.40
2018-04-08T13:15:43.148Z,27.70
2018-04-08T13:18:11.277Z,26.90
2018-04-08T13:20:39.522Z,26.90
2018-04-08T13:23:08.281Z,26.40
2018-04-08T13:25:36.838Z,27.00
2018-04-08T13:28:05.228Z,27.10
2018-04-08T13:30:33.507Z,27.10
2018-04-08T13:33:00.980Z,26.50
2018-04-08T13:35:28.416Z,26.20
2018-04-08T13:37:55.877Z,26.80
2018-04-08T13:40:23.332Z,26.50
2018-04-08T13:42:50.785Z,26.80
2018-04-08T13:45:18.212Z,25.90
2018-04-08T13:47:45.648Z,25.90
2018-04-08T13:50:13.288Z,26.70
2018-04-08T13:52:40.735Z,26.70
2018-04-08T13:55:08.193Z,26.40
2018-04-08T13:57:35.661Z,26.40
2018-04-08T14:00:03.117Z,26.30
2018-04-08T14:02:30.564Z,26.10
2018-04-08T14:04:58.009Z,25.80
2018-04-08T14:07:25.477Z,26.10
2018-04-08T14:09:52.939Z,26.30
2018-04-08T14:12:20.391Z,26.10
2018-04-08T14:14:47.848Z,25.80
2018-04-08T14:17:15.305Z,26.10
2018-04-08T14:19:42.761Z,26.10
2018-04-08T14:22:10.197Z,26.20
2018-04-08T14:24:37.688Z,26.00
2018-04-08T14:27:05.080Z,26.00
2018-04-08T14:29:33.286Z,26.20
2018-04-08T14:32:00.742Z,26.20
2018-04-08T14:34:28.440Z,26.30
2018-04-08T14:36:55.920Z,25.50
2018-04-08T14:39:24.134Z,25.30
2018-04-08T14:41:51.585Z,25.30
2018-04-08T14:44:19.221Z,25.30
2018-04-08T14:46:46.648Z,25.00
2018-04-08T14:49:14.805Z,25.10
2018-04-08T14:51:42.260Z,25.40
2018-04-08T14:54:09.707Z,25.40
2018-04-08T14:56:37.144Z,25.20
2018-04-08T14:59:04.588Z,25.30
2018-04-08T15:01:32.051Z,25.20
2018-04-08T15:03:59.508Z,24.90
2018-04-08T15:06:27.943Z,24.80
2018-04-08T15:08:56.163Z,24.90
2018-04-08T15:11:23.612Z,24.90
2018-04-08T15:13:51.440Z,24.50
2018-04-08T15:16:19.265Z,24.60
2018-04-08T15:18:47.463Z,24.60
2018-04-08T15:21:17.802Z,24.50
2018-04-08T15:23:45.591Z,24.30
2018-04-08T15:26:13.013Z,24.40
2018-04-08T15:28:41.967Z,24.50
2018-04-08T15:31:09.802Z,24.50
2018-04-08T15:33:38.417Z,24.40
2018-04-08T15:36:05.932Z,24.40
2018-04-08T15:38:33.374Z,24.20
2018-04-08T15:41:01.576Z,24.20
2018-04-08T15:43:29.419Z,24.10
2018-04-08T15:45:57.632Z,23.90
2018-04-08T15:48:25.090Z,23.90
2018-04-08T15:50:52.547Z,24.00
2018-04-08T15:53:20.002Z,24.00
2018-04-08T15:55:47.460Z,23.90
2018-04-08T15:58:15.121Z,23.80
2018-04-08T16:00:46.136Z,23.80
2018-04-08T16:03:13.572Z,23.80
2018-04-08T16:05:41.780Z,23.80
2018-04-08T16:08:09.234Z,23.70
2018-04-08T16:10:36.703Z,23.70
2018-04-08T16:13:04.168Z,23.70
2018-04-08T16:15:31.617Z,23.60
2018-04-08T16:17:59.090Z,23.60
2018-04-08T16:20:26.895Z,23.60
2018-04-08T16:22:54.397Z,23.60
2018-04-08T16:25:21.845Z,23.60
2018-04-08T16:27:49.494Z,23.50
2018-04-08T16:30:17.700Z,23.40
2018-04-08T16:32:45.147Z,23.40
2018-04-08T16:35:12.604Z,23.30
2018-04-08T16:37:40.050Z,23.10
2018-04-08T16:40:07.825Z,23.00
2018-04-08T16:42:35.336Z,22.90
2018-04-08T16:45:03.561Z,22.80
2018-04-08T16:47:31.008Z,22.70
2018-04-08T16:49:58.457Z,22.70
2018-04-08T16:52:25.925Z,22.50
2018-04-08T16:54:53.394Z,22.50
2018-04-08T16:57:20.841Z,22.50
2018-04-08T16:59:48.293Z,22.40
2018-04-08T17:02:15.761Z,22.40
2018-04-08T17:04:43.205Z,22.30
2018-04-08T17:07:10.657Z,22.20
2018-04-08T17:09:38.110Z,22.20
2018-04-08T17:12:05.559Z,22.10
2018-04-08T17:14:33.020Z,22.00
2018-04-08T17:17:00.461Z,21.90
2018-04-08T17:19:27.945Z,21.90
2018-04-08T17:21:55.389Z,21.80
2018-04-08T17:24:22.856Z,21.70
2018-04-08T17:26:50.300Z,21.60
2018-04-08T17:29:17.755Z,21.60
2018-04-08T17:32:09.105Z,21.40
2018-04-08T17:34:36.568Z,21.30
2018-04-08T17:37:04.012Z,21.30
2018-04-08T17:39:31.477Z,21.20
2018-04-08T17:41:59.904Z,21.10
2018-04-08T17:44:27.340Z,21.60
2018-04-08T17:46:54.781Z,21.00
2018-04-08T17:49:22.244Z,20.80
2018-04-08T17:51:49.696Z,20.80
2018-04-08T17:54:18.078Z,20.60
2018-04-08T17:56:45.518Z,20.60
2018-04-08T17:59:13.176Z,20.50
2018-04-08T18:01:40.640Z,20.20
2018-04-08T18:04:08.192Z,20.20
2018-04-08T18:06:36.198Z,20.00
2018-04-08T18:09:03.721Z,20.00
2018-04-08T18:11:31.267Z,20.00
2018-04-08T18:13:58.756Z,19.90
2018-04-08T18:16:26.989Z,19.80
2018-04-08T18:18:54.429Z,19.70
2018-04-08T18:21:21.896Z,19.70
2018-04-08T18:23:49.373Z,19.70
2018-04-08T18:26:16.836Z,19.50
2018-04-08T18:28:44.289Z,19.50
2018-04-08T18:31:12.036Z,19.50
2018-04-08T18:33:39.539Z,19.50
2018-04-08T18:36:06.997Z,19.30
2018-04-08T18:38:35.209Z,19.20
2018-04-08T18:41:02.996Z,19.20
2018-04-08T18:43:30.427Z,19.10
2018-04-08T18:45:57.879Z,19.00
2018-04-08T18:48:25.338Z,18.90
2018-04-08T18:50:53.153Z,18.70
2018-04-08T18:53:21.447Z,18.70
2018-04-08T18:55:48.915Z,18.00
2018-04-08T18:58:16.542Z,17.20
2018-04-08T19:00:44.366Z,17.20
2018-04-08T19:03:11.837Z,17.40
2018-04-08T19:05:45.284Z,17.50
2018-04-08T19:08:13.872Z,17.30
2018-04-08T19:10:41.575Z,17.30
2018-04-08T19:13:10.167Z,16.80
2018-04-08T19:15:37.768Z,15.90
2018-04-08T19:18:05.344Z,15.70
2018-04-08T19:20:32.913Z,15.70
2018-04-08T19:23:00.448Z,15.50
2018-04-08T19:25:28.657Z,15.30
2018-04-08T19:27:56.112Z,15.30
2018-04-08T19:30:23.880Z,15.20
2018-04-08T19:32:51.322Z,15.10
2018-04-08T19:35:18.757Z,15.10
2018-04-08T19:37:46.208Z,14.80
2018-04-08T19:40:14.420Z,14.70
2018-04-08T19:42:41.877Z,14.70
2018-04-08T19:45:09.333Z,14.60
2018-04-08T19:47:37.104Z,14.50
2018-04-08T19:50:05.940Z,14.40
2018-04-08T19:52:34.233Z,14.40
2018-04-08T19:55:01.669Z,14.30
2018-04-08T19:57:29.126Z,14.20
2018-04-08T19:59:57.342Z,14.10
2018-04-08T20:02:24.830Z,14.10
2018-04-08T20:04:52.284Z,14.00
2018-04-08T20:07:19.821Z,13.90
2018-04-08T20:09:47.268Z,13.90
2018-04-08T20:12:14.789Z,13.80
2018-04-08T20:14:43.083Z,13.70
2018-04-08T20:17:13.897Z,13.70
2018-04-08T20:19:41.483Z,13.70
2018-04-08T20:22:08.951Z,13.60
2018-04-08T20:24:36.622Z,13.70
2018-04-08T20:27:04.200Z,13.70
2018-04-08T20:29:31.812Z,13.50
2018-04-08T20:31:59.266Z,13.40
2018-04-08T20:34:26.744Z,13.40
2018-04-08T20:36:54.184Z,13.40
2018-04-08T20:39:21.797Z,13.30
2018-04-08T20:41:49.323Z,13.30
2018-04-08T20:44:16.938Z,13.10
2018-04-08T20:46:44.730Z,13.10
2018-04-08T20:49:12.291Z,13.20
2018-04-08T20:51:39.743Z,13.00
2018-04-08T20:54:11.881Z,12.90
2018-04-08T20:56:40.986Z,12.90
2018-04-08T20:59:08.585Z,12.90
2018-04-08T21:01:36.069Z,12.90
2018-04-08T21:04:03.678Z,13.10
2018-04-08T21:06:31.518Z,13.00
2018-04-08T21:08:59.000Z,13.20
2018-04-08T21:11:26.637Z,13.60
2018-04-08T21:13:55.945Z,13.80
2018-04-08T21:16:24.217Z,13.50
2018-04-08T21:18:52.513Z,13.10
2018-04-08T21:21:20.048Z,13.10
2018-04-08T21:23:47.520Z,12.90
2018-04-08T21:26:15.164Z,13.10
2018-04-08T21:28:43.480Z,13.10
2018-04-08T21:31:10.931Z,13.10
2018-04-08T21:33:38.437Z,13.00
2018-04-08T21:36:05.883Z,12.90
2018-04-08T21:38:33.363Z,12.70
2018-04-08T21:41:00.800Z,12.70
2018-04-08T21:43:28.241Z,12.70
2018-04-08T21:45:56.025Z,12.60
2018-04-08T21:48:23.464Z,12.50
2018-04-08T21:50:50.895Z,12.50
2018-04-08T21:53:18.353Z,12.50
2018-04-08T21:55:45.800Z,12.60
2018-04-08T21:58:13.280Z,13.10
2018-04-08T22:00:41.444Z,13.40
2018-04-08T22:03:08.880Z,13.40
2018-04-08T22:05:36.548Z,14.30
2018-04-08T22:08:03.972Z,14.50
2018-04-08T22:10:32.185Z,14.90
2018-04-08T22:12:59.632Z,15.10
2018-04-08T22:15:27.068Z,15.00
2018-04-08T22:17:54.552Z,15.10
2018-04-08T22:20:22.009Z,15.20
2018-04-08T22:22:49.663Z,15.20
2018-04-08T22:25:17.165Z,15.20
2018-04-08T22:27:44.659Z,15.10
2018-04-08T22:30:12.153Z,15.20
2018-04-08T22:32:39.635Z,15.30
2018-04-08T22:35:07.162Z,15.20
2018-04-08T22:37:34.610Z,15.10
2018-04-08T22:40:02.048Z,15.10
2018-04-08T22:42:29.508Z,15.20
2018-04-08T22:44:56.957Z,15.30
2018-04-08T22:47:24.414Z,15.30
2018-04-08T22:49:52.099Z,15.30
2018-04-08T22:52:19.557Z,15.30
2018-04-08T22:54:47.232Z,14.60
2018-04-08T22:57:14.757Z,14.60
2018-04-08T22:59:42.272Z,14.20
2018-04-08T23:02:09.797Z,14.10
2018-04-08T23:04:37.265Z,13.30
2018-04-08T23:07:04.804Z,12.90
2018-04-08T23:09:32.296Z,12.70
2018-04-08T23:11:59.774Z,12.60
2018-04-08T23:14:27.300Z,13.60
2018-04-08T23:16:54.837Z,13.90
2018-04-08T23:19:22.377Z,14.40
2018-04-08T23:21:49.884Z,14.40
2018-04-08T23:24:17.417Z,14.60
2018-04-08T23:26:44.864Z,14.70
2018-04-08T23:29:12.386Z,14.80
2018-04-08T23:31:39.847Z,14.90
2018-04-08T23:34:08.101Z,14.80
2018-04-08T23:36:35.559Z,14.90
2018-04-08T23:39:03.052Z,14.40
2018-04-08T23:41:30.521Z,14.20
2018-04-08T23:43:57.967Z,13.60
2018-04-08T23:46:25.404Z,13.10
2018-04-08T23:48:53.621Z,12.80
2018-04-08T23:51:21.152Z,12.80
2018-04-08T23:53:48.659Z,13.40
2018-04-08T23:56:16.201Z,13.70
2018-04-08T23:58:43.727Z,13.60
